Time;durP1;ratioP1;P1;durP2;ratioP2;P2;SDS_P1;SDS_P2;PMS_P1;PMS_P2;Temp;Humidity;BMP_temperature;BMP_pressure;BME280_temperature;BME280_humidity;BME280_pressure;Samples;Min_cycle;Max_cycle;Signal;HPM_P1;HPM_P2
2021/04/11 00:00:36;;;;;;;7.82;3.30;;;;;;;6.67;58.92;95018.03;4990792;28;20133;-68
2021/04/11 00:03:19;;;;;;;5.18;2.90;;;;;;;6.65;58.68;95020.13;4985605;28;20130;-68
2021/04/11 00:05:45;;;;;;;5.72;3.25;;;;;;;6.71;58.61;95026.94;4981788;28;20049;-68
2021/04/11 00:08:13;;;;;;;5.35;3.45;;;;;;;6.48;59.81;95024.75;4989449;28;20042;-68
2021/04/11 00:10:41;;;;;;;6.93;3.20;;;;;;;6.35;61.85;95018.94;4990371;28;20405;-68
2021/04/11 00:13:12;;;;;;;5.22;3.25;;;;;;;6.21;61.97;95020.44;4988830;28;20042;-68
2021/04/11 00:15:38;;;;;;;5.70;3.25;;;;;;;6.21;62.70;95015.22;4988300;28;20109;-68
2021/04/11 00:18:04;;;;;;;8.57;3.33;;;;;;;6.03;62.68;95004.16;4990300;28;20050;-68
2021/04/11 00:20:29;;;;;;;5.90;3.40;;;;;;;6.10;62.88;95008.38;4990957;28;20047;-68
2021/04/11 00:22:55;;;;;;;5.75;3.63;;;;;;;6.05;62.18;95007.28;5005837;28;20428;-68
2021/04/11 00:25:29;;;;;;;5.63;3.40;;;;;;;6.02;62.69;94997.34;4982588;28;20034;-68
2021/04/11 00:27:54;;;;;;;5.10;3.27;;;;;;;6.07;63.28;95004.41;4990847;28;20046;-68
2021/04/11 00:30:20;;;;;;;5.50;3.30;;;;;;;6.12;62.49;94998.44;4991647;28;20060;-68
2021/04/11 00:32:49;;;;;;;7.05;3.50;;;;;;;6.07;62.42;94994.75;4986819;28;20034;-68
2021/04/11 00:35:15;;;;;;;5.18;3.38;;;;;;;5.96;62.90;94993.13;4990218;28;20050;-68
2021/04/11 00:37:40;;;;;;;4.70;2.95;;;;;;;5.99;63.07;94995.25;4990786;28;20046;-68
2021/04/11 00:40:10;;;;;;;7.30;3.38;;;;;;;6.04;63.37;94984.81;4987672;28;20074;-68
2021/04/11 00:42:41;;;;;;;5.57;3.40;;;;;;;5.91;63.23;94990.47;4988302;28;20049;-68
2021/04/11 00:45:24;;;;;;;6.32;3.05;;;;;;;5.84;63.41;94985.44;4988178;28;20038;-68
2021/04/11 00:47:50;;;;;;;6.55;3.28;;;;;;;5.65;63.73;94979.84;4991711;28;20061;-68
2021/04/11 00:50:17;;;;;;;4.30;2.92;;;;;;;5.45;64.37;94971.88;4990496;28;20054;-68
2021/04/11 00:52:45;;;;;;;7.65;3.35;;;;;;;5.27;65.05;94976.44;4989874;28;20359;-68
2021/04/11 00:55:12;;;;;;;5.03;3.20;;;;;;;5.30;64.42;94970.72;4983872;28;20448;-68
2021/04/11 00:57:39;;;;;;;5.82;3.45;;;;;;;5.31;63.86;94972.28;4990620;28;20046;-68
2021/04/11 01:00:06;;;;;;;6.82;3.60;;;;;;;5.28;64.09;94972.78;4990800;28;20057;-68
2021/04/11 01:02:33;;;;;;;6.35;3.42;;;;;;;5.37;64.07;94971.31;4988293;28;20463;-67
2021/04/11 01:04:58;;;;;;;6.47;3.55;;;;;;;5.16;65.33;94970.34;4994321;28;20165;-68
2021/04/11 01:07:25;;;;;;;5.63;3.30;;;;;;;5.44;64.24;94965.84;4989671;28;20050;-67
2021/04/11 01:09:52;;;;;;;6.00;3.25;;;;;;;5.57;64.45;94969.09;4990714;28;20114;-68
2021/04/11 01:12:21;;;;;;;7.38;3.30;;;;;;;5.51;64.39;94965.66;4991503;28;20511;-68
2021/04/11 01:14:48;;;;;;;5.60;3.10;;;;;;;5.62;64.46;94969.91;4993784;28;20066;-68
2021/04/11 01:17:16;;;;;;;6.70;3.50;;;;;;;5.37;64.97;94960.88;4988990;28;20047;-68
2021/04/11 01:19:42;;;;;;;7.93;3.35;;;;;;;5.37;65.23;94965.28;4991803;28;20096;-68
2021/04/11 01:22:14;;;;;;;5.25;3.30;;;;;;;5.40;65.65;94959.56;4993834;28;20042;-68
2021/04/11 01:24:49;;;;;;;6.47;3.65;;;;;;;5.37;65.85;94955.66;4993352;28;20068;-68
2021/04/11 01:27:19;;;;;;;6.40;3.55;;;;;;;5.26;67.22;94956.59;4990409;28;20051;-67
2021/04/11 01:29:46;;;;;;;7.32;3.42;;;;;;;5.29;66.19;94957.94;4994020;28;20042;-68
2021/04/11 01:32:13;;;;;;;5.43;3.20;;;;;;;5.24;66.37;94950.81;4990089;28;20046;-68
2021/04/11 01:34:40;;;;;;;4.75;3.63;;;;;;;5.17;67.50;94955.47;4985916;28;20042;-68
2021/04/11 01:37:08;;;;;;;6.82;3.53;;;;;;;5.20;67.26;94949.75;4987904;28;20043;-67
2021/04/11 01:39:37;;;;;;;5.80;3.45;;;;;;;5.29;67.05;94945.66;4986190;28;20038;-67
2021/04/11 01:42:04;;;;;;;6.85;3.47;;;;;;;5.19;66.68;94938.53;4990747;28;20046;-68
2021/04/11 01:44:33;;;;;;;6.72;3.50;;;;;;;5.12;67.01;94937.19;4992593;28;20046;-68
2021/04/11 01:46:59;;;;;;;6.90;3.30;;;;;;;5.20;66.40;94939.31;4987252;28;20039;-67
2021/04/11 01:49:26;;;;;;;6.20;3.78;;;;;;;5.12;67.04;94942.41;4992755;28;20046;-68
2021/04/11 01:51:59;;;;;;;6.78;3.50;;;;;;;5.24;67.12;94940.41;4993116;28;20038;-68
2021/04/11 01:54:30;;;;;;;6.82;3.67;;;;;;;5.31;66.22;94946.19;4992024;28;20068;-68
2021/04/11 01:56:56;;;;;;;6.38;3.40;;;;;;;5.39;66.24;94942.34;4981563;28;20038;-68
2021/04/11 01:59:27;;;;;;;7.28;3.55;;;;;;;5.42;66.76;94930.63;4992803;28;20526;-68
2021/04/11 02:01:54;;;;;;;7.85;3.70;;;;;;;5.29;66.57;94930.00;4992112;28;20420;-68
2021/04/11 02:04:21;;;;;;;6.43;3.40;;;;;;;5.41;66.98;94936.88;4984720;28;20042;-68
2021/04/11 02:06:51;;;;;;;5.25;3.20;;;;;;;5.51;67.12;94931.72;4986345;28;20089;-67
2021/04/11 02:09:26;;;;;;;6.25;3.40;;;;;;;5.42;66.91;94935.84;4992394;28;20046;-68
2021/04/11 02:11:52;;;;;;;5.60;3.42;;;;;;;5.47;66.39;94928.81;4991930;28;20408;-68
2021/04/11 02:14:18;;;;;;;7.20;3.58;;;;;;;5.48;66.36;94929.63;4985247;28;20133;-67
2021/04/11 02:16:44;;;;;;;6.22;3.47;;;;;;;5.57;66.14;94937.75;4990850;28;20698;-67
2021/04/11 02:19:16;;;;;;;6.82;3.30;;;;;;;5.69;65.72;94931.31;4992561;28;20614;-68
2021/04/11 02:21:46;;;;;;;6.30;3.55;;;;;;;5.62;66.44;94927.38;4987665;28;20046;-68
2021/04/11 02:24:13;;;;;;;6.90;3.50;;;;;;;5.70;65.62;94938.13;4987639;28;20054;-68
2021/04/11 02:26:40;;;;;;;5.22;3.10;;;;;;;5.63;65.87;94927.13;4992296;28;20105;-67
2021/04/11 02:29:15;;;;;;;4.22;3.00;;;;;;;5.63;66.07;94932.34;4992800;28;20420;-67
2021/04/11 02:31:41;;;;;;;4.75;3.10;;;;;;;5.61;66.04;94939.63;4992290;28;20046;-68
2021/04/11 02:34:11;;;;;;;8.25;3.20;;;;;;;5.55;65.95;94935.41;4990977;28;20539;-67
2021/04/11 02:36:43;;;;;;;6.35;3.60;;;;;;;5.40;65.87;94937.91;4991801;28;20034;-67
2021/04/11 02:39:13;;;;;;;6.38;3.53;;;;;;;5.50;66.37;94930.16;4988710;28;20460;-68
2021/04/11 02:41:40;;;;;;;5.97;3.22;;;;;;;5.68;66.09;94934.19;4991110;28;20166;-67
2021/04/11 02:44:06;;;;;;;5.68;3.08;;;;;;;5.81;65.25;94935.56;4989864;28;20124;-68
2021/04/11 02:46:34;;;;;;;5.70;3.20;;;;;;;5.75;65.67;94939.16;5000617;28;20455;-68
2021/04/11 02:49:00;;;;;;;5.60;3.30;;;;;;;5.50;67.16;94927.53;4990332;28;20053;-67
2021/04/11 02:51:29;;;;;;;5.93;3.42;;;;;;;5.49;66.71;94931.19;4991447;28;20464;-67
2021/04/11 02:53:58;;;;;;;5.10;3.33;;;;;;;5.50;66.65;94933.56;4990454;28;20042;-68
2021/04/11 02:56:25;;;;;;;5.82;3.40;;;;;;;5.54;66.33;94928.59;4986709;28;20250;-67
2021/04/11 02:58:51;;;;;;;5.72;3.08;;;;;;;5.65;66.25;94940.69;4991242;28;20496;-67
2021/04/11 03:01:25;;;;;;;5.88;3.00;;;;;;;5.80;65.54;94932.16;4991078;28;20052;-67
2021/04/11 03:03:50;;;;;;;6.85;3.30;;;;;;;5.73;65.47;94942.84;4988239;28;20468;-67
2021/04/11 03:06:21;;;;;;;4.95;3.25;;;;;;;5.74;65.81;94938.38;4990356;28;20038;-68
2021/04/11 03:08:50;;;;;;;6.38;3.42;;;;;;;5.69;65.96;94941.75;4990463;28;20042;-67
2021/04/11 03:11:40;;;;;;;6.90;3.30;;;;;;;5.68;65.61;94932.34;4990487;28;20054;-67
2021/04/11 03:14:08;;;;;;;5.38;3.33;;;;;;;5.59;65.96;94936.47;4983331;28;20043;-67
2021/04/11 03:16:36;;;;;;;6.35;3.13;;;;;;;5.40;66.34;94937.91;4987042;28;20539;-67
2021/04/11 03:19:01;;;;;;;6.00;2.92;;;;;;;5.61;65.65;94934.41;4990469;28;20038;-67
2021/04/11 03:21:28;;;;;;;5.47;3.28;;;;;;;5.24;66.92;94932.56;4989522;28;20629;-68
2021/04/11 03:23:54;;;;;;;5.47;3.13;;;;;;;5.17;67.93;94929.38;4987944;28;20112;-67
2021/04/11 03:26:25;;;;;;;4.95;2.70;;;;;;;5.38;67.02;94920.66;5002912;28;20046;-67
2021/04/11 03:28:56;;;;;;;6.60;3.22;;;;;;;5.30;66.90;94923.75;4991020;28;20052;-68
2021/04/11 03:31:37;;;;;;;5.07;3.00;;;;;;;5.32;66.49;94932.13;4990802;28;20058;-67
2021/04/11 03:34:05;;;;;;;4.82;2.78;;;;;;;5.44;66.68;94928.53;4988782;28;20073;-67
2021/04/11 03:36:33;;;;;;;7.28;3.15;;;;;;;5.41;66.93;94929.06;4989981;28;20049;-67
2021/04/11 03:39:00;;;;;;;5.03;3.10;;;;;;;5.36;66.75;94921.97;4987967;28;20046;-69
2021/04/11 03:41:32;;;;;;;4.60;2.72;;;;;;;5.65;65.74;94934.69;4989468;28;20500;-67
2021/04/11 03:44:00;;;;;;;6.05;2.70;;;;;;;5.57;65.71;94928.09;4981470;28;20042;-68
2021/04/11 03:47:02;;;;;;;4.60;2.83;;;;;;;5.41;66.30;94923.84;4989081;28;20042;-68
2021/04/11 03:49:33;;;;;;;5.30;2.97;;;;;;;5.37;65.14;94921.72;4989622;28;20041;-68
2021/04/11 03:52:04;;;;;;;4.47;2.78;;;;;;;5.61;64.58;94929.19;4987161;28;20104;-67
2021/04/11 03:54:35;;;;;;;5.72;2.85;;;;;;;5.61;64.62;94929.19;4988626;28;20118;-67
2021/04/11 03:57:09;;;;;;;4.43;2.50;;;;;;;5.58;64.33;94923.69;4990440;28;20118;-67
2021/04/11 03:59:40;;;;;;;7.00;2.67;;;;;;;5.54;64.52;94923.38;4990744;28;20134;-67
2021/04/11 04:02:08;;;;;;;5.07;2.70;;;;;;;5.66;63.11;94929.22;4989588;28;20049;-67
2021/04/11 04:04:37;;;;;;;5.88;2.42;;;;;;;5.62;64.15;94930.75;4983255;28;20051;-67
2021/04/11 04:07:14;;;;;;;5.30;2.75;;;;;;;5.55;64.24;94930.19;4990957;28;20531;-67
2021/04/11 04:09:42;;;;;;;7.10;2.70;;;;;;;5.52;63.91;94931.47;4989826;28;20030;-67
2021/04/11 04:12:21;;;;;;;4.32;2.63;;;;;;;5.38;64.13;94925.13;4989608;28;20038;-67
2021/04/11 04:15:02;;;;;;;4.97;2.92;;;;;;;4.99;65.41;94927.94;4981106;28;20113;-67
2021/04/11 04:17:39;;;;;;;6.35;2.78;;;;;;;5.02;65.83;94928.22;4989975;28;20582;-67
2021/04/11 04:20:13;;;;;;;5.75;2.60;;;;;;;4.82;66.24;94922.84;4988983;28;20459;-67
2021/04/11 04:22:46;;;;;;;6.35;3.00;;;;;;;4.77;66.13;94930.59;4989200;28;20250;-67
2021/04/11 04:25:32;;;;;;;3.58;2.58;;;;;;;4.83;65.52;94924.41;4985790;28;20042;-67
2021/04/11 04:28:19;;;;;;;4.05;2.70;;;;;;;5.02;65.30;94927.44;4988780;28;20058;-67
2021/04/11 04:30:58;;;;;;;4.10;2.60;;;;;;;4.92;64.74;94922.16;4989841;28;20050;-68
2021/04/11 04:34:08;;;;;;;5.15;2.90;;;;;;;4.94;65.02;94925.28;4989693;28;20046;-67
2021/04/11 04:36:57;;;;;;;4.25;2.47;;;;;;;4.68;65.26;94928.47;4984044;28;20527;-67
2021/04/11 04:39:37;;;;;;;7.85;2.70;;;;;;;4.72;65.66;94931.34;4993147;28;20097;-67
2021/04/11 04:42:35;;;;;;;6.15;2.33;;;;;;;4.74;65.56;94925.88;5006947;28;20125;-67
2021/04/11 04:45:12;;;;;;;6.00;2.95;;;;;;;4.78;66.03;94938.16;4989136;28;20058;-67
2021/04/11 04:47:59;;;;;;;3.85;2.40;;;;;;;4.80;65.35;94937.94;4991381;28;20394;-67
2021/04/11 04:50:30;;;;;;;4.43;2.67;;;;;;;4.63;65.75;94941.44;4993216;28;20046;-67
2021/04/11 04:53:11;;;;;;;4.18;2.70;;;;;;;4.86;65.51;94939.56;4991679;28;20062;-67
2021/04/11 04:55:41;;;;;;;5.88;2.50;;;;;;;4.98;65.07;94937.56;4985398;28;20031;-67
2021/04/11 04:58:14;;;;;;;4.57;2.60;;;;;;;5.02;65.56;94933.44;4989778;28;20398;-67
2021/04/11 05:00:46;;;;;;;3.78;2.40;;;;;;;4.91;66.13;94939.59;4989813;28;20034;-67
2021/04/11 05:03:26;;;;;;;4.82;2.58;;;;;;;4.75;66.68;94938.66;4988469;28;20485;-67
2021/04/11 05:06:00;;;;;;;6.30;2.55;;;;;;;4.92;66.32;94943.00;4990483;28;20045;-67
2021/04/11 05:08:32;;;;;;;4.30;2.83;;;;;;;4.83;65.99;94934.84;4993080;28;20688;-68
2021/04/11 05:11:04;;;;;;;4.63;2.90;;;;;;;4.82;65.93;94943.69;4992191;28;20042;-68
2021/04/11 05:13:38;;;;;;;4.20;2.67;;;;;;;4.50;67.98;94941.81;4990757;28;20049;-67
2021/04/11 05:16:09;;;;;;;4.40;2.80;;;;;;;4.33;68.46;94942.66;4988950;28;20050;-67
2021/04/11 05:18:45;;;;;;;6.55;2.67;;;;;;;4.44;68.28;94947.97;4993795;28;20058;-67
2021/04/11 05:21:17;;;;;;;6.30;2.80;;;;;;;4.50;68.11;94940.00;4990361;28;20523;-67
2021/04/11 05:23:42;;;;;;;4.03;2.70;;;;;;;4.60;67.53;94944.53;4989457;28;20054;-67
2021/04/11 05:26:30;;;;;;;5.10;2.60;;;;;;;4.68;67.46;94948.50;4987879;28;20093;-66
2021/04/11 05:28:55;;;;;;;3.85;2.47;;;;;;;4.78;67.01;94938.16;4988613;28;20638;-66
2021/04/11 05:31:27;;;;;;;4.90;2.40;;;;;;;5.00;66.32;94945.94;4993247;28;20042;-66
2021/04/11 05:33:54;;;;;;;4.50;2.60;;;;;;;4.95;67.62;94938.06;4990897;28;20408;-66
2021/04/11 05:36:52;;;;;;;5.53;2.95;;;;;;;5.08;67.59;94943.94;4990167;28;20493;-65
2021/04/11 05:39:35;;;;;;;4.43;2.45;;;;;;;5.35;66.46;94936.81;4999515;28;20069;-65
2021/04/11 05:42:16;;;;;;;4.50;2.92;;;;;;;5.36;66.70;94938.41;4992914;28;20038;-66
2021/04/11 05:44:59;;;;;;;3.05;2.33;;;;;;;5.62;65.23;94943.81;4986850;28;20034;-65
2021/04/11 05:47:40;;;;;;;6.07;2.85;;;;;;;5.72;64.93;94941.25;4992326;28;20057;-66
2021/04/11 05:50:14;;;;;;;5.63;2.63;;;;;;;5.80;65.48;94939.22;4987940;28;20046;-66
2021/04/11 05:52:59;;;;;;;3.83;2.53;;;;;;;5.98;63.94;94944.03;4990593;28;20396;-67
2021/04/11 05:55:27;;;;;;;4.05;2.60;;;;;;;6.17;64.04;94941.00;4988609;28;20049;-65
2021/04/11 05:58:04;;;;;;;4.20;2.70;;;;;;;6.22;64.63;94947.03;4992373;28;20038;-66
2021/04/11 06:00:54;;;;;;;4.00;2.70;;;;;;;6.40;63.96;94951.00;4992436;28;20090;-66
2021/04/11 06:03:24;;;;;;;4.75;3.03;;;;;;;6.45;66.03;94941.59;4992433;28;20046;-66
2021/04/11 06:06:04;;;;;;;3.90;2.65;;;;;;;6.36;68.71;94943.94;4992264;28;20030;-66
2021/04/11 06:08:45;;;;;;;5.20;3.15;;;;;;;6.45;69.32;94941.59;4993101;28;20046;-65
2021/04/11 06:11:23;;;;;;;4.47;2.80;;;;;;;6.59;68.20;94943.50;4991082;28;20050;-65
2021/04/11 06:14:20;;;;;;;4.18;2.90;;;;;;;6.71;67.97;94940.66;4985813;28;20069;-66
2021/04/11 06:16:46;;;;;;;5.55;2.85;;;;;;;6.81;68.17;94939.09;5000478;28;20527;-65
2021/04/11 06:19:13;;;;;;;3.20;2.30;;;;;;;7.23;59.76;94933.63;4985708;28;20051;-65
2021/04/11 06:22:07;;;;;;;5.57;2.83;;;;;;;7.47;62.49;94930.50;4992742;28;20385;-64
2021/04/11 06:24:52;;;;;;;4.60;2.85;;;;;;;7.86;57.19;94931.72;5003038;28;20042;-65
2021/04/11 06:27:27;;;;;;;4.32;2.90;;;;;;;8.07;56.48;94928.00;4987152;28;20100;-64
2021/04/11 06:30:08;;;;;;;9.23;3.15;;;;;;;8.13;58.00;94932.19;4986275;28;20451;-66
2021/04/11 06:32:41;;;;;;;5.72;3.10;;;;;;;8.09;57.46;94936.38;4991484;28;20046;-65
2021/04/11 06:35:10;;;;;;;6.43;3.33;;;;;;;8.34;54.07;94926.84;4990323;28;20050;-64
2021/04/11 06:37:39;;;;;;;5.80;2.83;;;;;;;8.37;56.83;94921.06;4992226;28;20062;-65
2021/04/11 06:40:29;;;;;;;5.93;2.80;;;;;;;8.48;54.42;94922.63;4992252;28;20279;-65
2021/04/11 06:43:13;;;;;;;4.50;2.50;;;;;;;8.51;55.56;94920.53;4985684;28;20105;-65
2021/04/11 06:46:01;;;;;;;3.70;2.30;;;;;;;8.51;57.63;94912.66;4986139;28;20034;-65
2021/04/11 06:48:42;;;;;;;4.80;2.30;;;;;;;8.53;57.82;94918.41;4992112;28;20050;-66
2021/04/11 06:51:39;;;;;;;2.72;2.17;;;;;;;8.61;57.61;94909.97;4990724;28;20042;-65
2021/04/11 06:54:27;;;;;;;6.13;2.80;;;;;;;9.00;54.18;94911.84;4990025;28;20062;-65
2021/04/11 06:57:07;;;;;;;4.13;2.40;;;;;;;8.96;57.26;94900.31;4991201;28;20519;-65
2021/04/11 06:59:53;;;;;;;3.60;2.45;;;;;;;9.00;57.79;94906.59;4991696;28;20125;-67
2021/04/11 07:02:48;;;;;;;4.53;2.45;;;;;;;9.08;56.58;94898.13;4988732;28;20497;-66
2021/04/11 07:05:35;;;;;;;4.20;2.05;;;;;;;9.16;57.32;94900.16;4988238;28;20413;-66
2021/04/11 07:08:49;;;;;;;4.57;2.22;;;;;;;9.47;55.87;94902.53;4983861;28;20065;-66
2021/04/11 07:11:39;;;;;;;3.92;2.67;;;;;;;9.42;60.90;94899.94;4999238;28;20124;-65
2021/04/11 07:14:23;;;;;;;4.65;2.53;;;;;;;9.44;60.39;94900.47;4983426;28;20046;-65
2021/04/11 07:17:02;;;;;;;3.58;2.40;;;;;;;9.51;60.13;94906.16;4986071;28;20046;-66
2021/04/11 07:19:50;;;;;;;5.68;2.40;;;;;;;9.62;59.39;94890.31;4990770;28;20054;-65
2021/04/11 07:22:40;;;;;;;6.38;2.55;;;;;;;9.68;58.35;94894.44;4989349;28;20056;-66
2021/04/11 07:25:33;;;;;;;4.40;2.80;;;;;;;9.93;53.60;94892.59;4987713;28;20049;-65
2021/04/11 07:28:02;;;;;;;6.03;2.50;;;;;;;9.97;57.49;94906.75;4990038;28;20043;-66
2021/04/11 07:30:54;;;;;;;5.97;2.50;;;;;;;10.11;54.69;94891.88;4990077;28;20112;-67
2021/04/11 07:33:48;;;;;;;3.72;2.17;;;;;;;10.22;55.81;94882.81;4989346;28;20038;-66
2021/04/11 07:36:39;;;;;;;4.45;2.30;;;;;;;10.25;54.88;94880.69;4984366;28;20059;-67
2021/04/11 07:39:57;;;;;;;3.75;2.00;;;;;;;10.37;56.15;94878.44;4989182;28;20038;-65
2021/04/11 07:43:05;;;;;;;5.13;2.45;;;;;;;11.24;49.70;94874.53;4995863;28;20049;-65
2021/04/11 07:46:22;;;;;;;4.55;2.20;;;;;;;11.34;47.77;94872.84;4989381;28;20034;-64
2021/04/11 07:49:08;;;;;;;2.88;1.90;;;;;;;11.92;45.83;94872.31;5001666;28;20049;-65
2021/04/11 07:52:02;;;;;;;4.47;2.10;;;;;;;12.17;44.65;94867.66;4990935;28;20045;-65
2021/04/11 07:54:44;;;;;;;3.17;1.90;;;;;;;11.88;47.73;94871.34;4987874;28;20598;-65
2021/04/11 07:57:46;;;;;;;3.10;1.98;;;;;;;12.01;45.37;94866.38;4989014;28;20451;-65
2021/04/11 08:00:12;;;;;;;2.92;2.10;;;;;;;12.03;44.00;94872.16;4988620;28;20042;-66
2021/04/11 08:03:15;;;;;;;4.32;2.45;;;;;;;12.45;43.82;94867.59;4994549;28;20053;-65
2021/04/11 08:05:59;;;;;;;6.35;2.17;;;;;;;12.60;43.55;94877.84;4985009;28;20234;-65
2021/04/11 08:08:36;;;;;;;3.10;2.10;;;;;;;12.53;46.09;94880.09;4989981;28;20124;-65
2021/04/11 08:11:08;;;;;;;2.50;1.80;;;;;;;12.36;45.18;94878.06;4984476;28;20047;-66
2021/04/11 08:14:00;;;;;;;1.92;1.60;;;;;;;12.84;43.19;94874.13;4988253;28;20154;-65
2021/04/11 08:16:48;;;;;;;3.72;2.08;;;;;;;12.72;44.03;94877.31;4989079;28;20871;-65
2021/04/11 08:19:45;;;;;;;2.53;1.85;;;;;;;12.64;46.12;94881.44;4990175;28;20129;-66
2021/04/11 08:22:38;;;;;;;4.22;1.85;;;;;;;12.69;45.43;94872.63;4988784;28;20046;-65
2021/04/11 08:25:12;;;;;;;3.03;1.77;;;;;;;13.24;41.65;94871.63;4980603;28;20629;-65
2021/04/11 08:27:56;;;;;;;2.17;1.50;;;;;;;13.91;38.45;94867.31;4989887;28;20492;-65
2021/04/11 08:30:29;;;;;;;2.60;1.58;;;;;;;14.08;38.85;94865.81;4989681;28;20049;-64
2021/04/11 08:33:16;;;;;;;3.33;1.80;;;;;;;14.17;37.56;94863.97;4989571;28;20103;-65
2021/04/11 08:35:47;;;;;;;2.35;1.70;;;;;;;14.38;35.59;94864.97;4985053;28;20109;-65
2021/04/11 08:38:16;;;;;;;3.00;1.50;;;;;;;14.29;37.67;94861.50;4990600;28;20046;-66
2021/04/11 08:41:03;;;;;;;2.30;1.70;;;;;;;14.35;37.27;94859.50;4990490;28;20134;-65
2021/04/11 08:43:50;;;;;;;3.33;1.90;;;;;;;14.43;37.91;94866.69;4989060;28;20053;-66
2021/04/11 08:46:47;;;;;;;2.65;1.55;;;;;;;14.46;37.15;94870.56;4986049;28;20058;-66
2021/04/11 08:49:31;;;;;;;2.55;1.60;;;;;;;14.28;39.95;94875.84;4987726;28;20492;-66
2021/04/11 08:52:00;;;;;;;1.75;1.60;;;;;;;14.20;41.00;94872.06;4982439;28;20374;-65
2021/04/11 08:54:36;;;;;;;4.40;1.77;;;;;;;14.17;41.64;94874.56;4989879;28;20056;-66
2021/04/11 08:57:14;;;;;;;3.63;1.77;;;;;;;14.25;39.83;94880.97;5001195;28;20475;-65
2021/04/11 09:00:16;;;;;;;3.08;1.70;;;;;;;14.17;43.65;94880.63;4989665;28;20062;-65
2021/04/11 09:03:06;;;;;;;3.08;1.60;;;;;;;14.48;39.39;94873.69;4998971;28;20141;-64
2021/04/11 09:05:46;;;;;;;2.13;1.50;;;;;;;14.45;42.55;94869.00;4988052;28;20097;-65
2021/04/11 09:08:37;;;;;;;3.65;1.50;;;;;;;14.77;40.03;94880.28;4987294;28;20045;-65
2021/04/11 09:11:18;;;;;;;2.22;1.63;;;;;;;14.83;39.84;94873.75;4989600;28;20058;-66
2021/04/11 09:14:17;;;;;;;3.15;1.60;;;;;;;14.57;39.13;94877.13;4983275;28;20035;-65
2021/04/11 09:16:52;;;;;;;2.40;1.30;;;;;;;15.16;36.40;94875.94;4980653;28;20035;-65
2021/04/11 09:19:25;;;;;;;;;;;;;;;14.77;42.11;94874.97;4984859;28;20113;-65
2021/04/11 09:22:09;;;;;;;2.13;1.52;;;;;;;14.65;39.23;94873.75;4988044;28;19925;-66
2021/04/11 09:24:34;;;;;;;3.10;1.60;;;;;;;14.98;38.75;94865.31;4990458;28;20046;-65
2021/04/11 09:27:21;;;;;;;2.00;1.80;;;;;;;15.01;39.25;94859.41;4993018;28;20046;-67
2021/04/11 09:30:04;;;;;;;2.45;1.55;;;;;;;15.01;37.93;94846.16;4989662;28;20044;-65
2021/04/11 09:32:42;;;;;;;2.03;1.52;;;;;;;15.15;39.47;94853.16;4991327;28;20491;-66
2021/04/11 09:35:14;;;;;;;2.20;1.40;;;;;;;15.28;36.17;94851.44;4992211;28;20389;-64
2021/04/11 09:38:02;;;;;;;2.03;1.30;;;;;;;15.35;37.34;94852.50;4988356;28;20061;-66
2021/04/11 09:40:52;;;;;;;1.63;1.50;;;;;;;15.23;37.92;94849.72;4993460;28;20077;-65
2021/04/11 09:43:38;;;;;;;2.63;1.50;;;;;;;15.67;37.04;94850.38;4992184;28;20050;-65
2021/04/11 09:46:31;;;;;;;1.88;1.40;;;;;;;15.50;37.01;94845.13;4990132;28;20043;-65
2021/04/11 09:49:31;;;;;;;2.92;1.48;;;;;;;15.68;38.62;94849.28;4989790;28;20054;-66
2021/04/11 09:52:43;;;;;;;2.80;1.70;;;;;;;16.16;36.88;94851.91;4989543;28;20050;-66
2021/04/11 09:55:21;;;;;;;3.08;1.50;;;;;;;16.35;33.58;94849.63;4991568;28;20408;-65
2021/04/11 09:58:18;;;;;;;1.98;1.52;;;;;;;16.65;33.69;94841.63;4993439;28;20050;-65
2021/04/11 10:00:54;;;;;;;1.95;1.33;;;;;;;16.73;33.06;94848.72;4987556;28;20042;-65
2021/04/11 10:03:25;;;;;;;1.67;1.40;;;;;;;16.53;35.28;94844.19;4991163;28;20068;-66
2021/04/11 10:06:18;;;;;;;1.73;1.40;;;;;;;16.43;34.09;94835.53;5021061;28;20567;-65
2021/04/11 10:09:05;;;;;;;1.90;1.35;;;;;;;16.26;33.51;94831.09;5008052;28;20053;-65
2021/04/11 10:11:42;;;;;;;2.80;1.50;;;;;;;16.28;35.31;94828.13;4991269;28;20046;-65
2021/04/11 10:14:45;;;;;;;2.30;1.40;;;;;;;16.26;34.03;94835.59;4988101;28;20062;-66
2021/04/11 10:17:19;;;;;;;2.13;1.35;;;;;;;16.00;35.23;94833.88;4987861;28;20085;-65
2021/04/11 10:20:08;;;;;;;3.50;1.42;;;;;;;15.84;35.06;94819.59;4989577;28;20413;-65
2021/04/11 10:22:56;;;;;;;1.20;1.10;;;;;;;16.02;36.80;94831.69;4988958;28;20051;-65
2021/04/11 10:25:35;;;;;;;3.42;1.33;;;;;;;16.54;34.41;94829.81;4988274;28;20148;-65
2021/04/11 10:28:13;;;;;;;3.15;1.23;;;;;;;16.77;36.65;94823.06;4987206;28;20504;-66
2021/04/11 10:30:39;;;;;;;2.80;1.40;;;;;;;17.09;34.46;94827.97;4990559;28;20078;-66
2021/04/11 10:33:12;;;;;;;2.20;1.60;;;;;;;18.44;32.92;94814.00;4989978;28;20087;-65
2021/04/11 10:35:50;;;;;;;2.60;1.40;;;;;;;18.46;29.90;94816.34;4991556;28;20050;-67
2021/04/11 10:38:30;;;;;;;2.05;1.40;;;;;;;17.87;32.64;94812.28;4991892;28;20512;-66
2021/04/11 10:41:03;;;;;;;2.88;1.38;;;;;;;17.47;35.16;94811.78;4985170;28;20055;-66
2021/04/11 10:43:35;;;;;;;1.75;1.40;;;;;;;17.70;34.54;94814.03;4984101;28;20085;-66
2021/04/11 10:46:06;;;;;;;2.22;1.55;;;;;;;18.46;33.22;94809.13;4989004;28;20030;-66
2021/04/11 10:48:53;;;;;;;1.52;1.40;;;;;;;19.08;32.09;94814.28;4991816;28;20397;-66
2021/04/11 10:51:39;;;;;;;1.52;1.30;;;;;;;19.60;31.34;94806.44;4992276;28;20081;-66
2021/04/11 10:54:14;;;;;;;1.90;1.40;;;;;;;19.89;30.33;94808.69;4988295;28;20049;-66
2021/04/11 10:57:25;;;;;;;2.58;1.35;;;;;;;20.03;31.32;94808.25;4988258;28;20049;-66
2021/04/11 10:59:54;;;;;;;2.17;1.38;;;;;;;19.75;30.23;94802.97;4990420;28;20355;-66
2021/04/11 11:02:32;;;;;;;1.55;1.30;;;;;;;19.34;30.02;94797.03;4987670;28;20097;-66
2021/04/11 11:05:19;;;;;;;1.40;1.20;;;;;;;19.26;31.34;94808.66;4987991;28;20050;-65
2021/04/11 11:08:05;;;;;;;2.00;1.40;;;;;;;19.32;31.85;94808.06;4988838;28;20042;-66
2021/04/11 11:11:12;;;;;;;3.47;1.40;;;;;;;18.93;31.41;94801.69;4991566;28;20054;-66
2021/04/11 11:13:50;;;;;;;1.77;1.30;;;;;;;18.55;31.59;94802.88;4985511;28;20956;-67
2021/04/11 11:16:27;;;;;;;4.70;1.50;;;;;;;18.33;33.57;94796.94;4987199;28;20078;-66
2021/04/11 11:19:37;;;;;;;1.85;1.30;;;;;;;19.09;31.34;94799.06;4991027;28;20070;-65
2021/04/11 11:22:24;;;;;;;1.42;1.30;;;;;;;19.28;32.67;94801.06;4992628;28;20054;-66
2021/04/11 11:25:18;;;;;;;2.75;1.30;;;;;;;19.54;31.88;94793.34;5002635;28;20046;-66
2021/04/11 11:28:02;;;;;;;3.47;1.50;;;;;;;20.41;30.19;94790.78;4990994;28;20085;-66
2021/04/11 11:31:07;;;;;;;2.25;1.30;;;;;;;20.18;29.90;94785.28;4990473;28;20068;-66
2021/04/11 11:33:39;;;;;;;;;;;;;;;19.71;30.40;94791.44;4986687;28;20093;-65
2021/04/11 11:36:30;;;;;;;2.20;1.35;;;;;;;19.18;31.05;94792.47;4990613;28;19929;-66
2021/04/11 11:39:15;;;;;;;1.40;1.20;;;;;;;18.60;32.02;94792.00;4990424;28;20046;-66
2021/04/11 11:41:40;;;;;;;;;;;;;;;18.65;31.32;94802.44;4986356;28;20081;-66
2021/04/11 11:44:24;;;;;;;2.05;1.23;;;;;;;18.57;31.48;94790.00;4988813;28;19930;-65
2021/04/11 11:47:12;;;;;;;2.83;1.20;;;;;;;18.28;31.95;94799.84;4987687;28;20496;-67
2021/04/11 11:49:58;;;;;;;1.30;1.20;;;;;;;18.38;31.64;94799.38;4986822;28;20050;-65
2021/04/11 11:52:34;;;;;;;2.30;1.25;;;;;;;18.42;30.18;94800.25;4989861;28;20038;-66
2021/04/11 11:55:05;;;;;;;1.35;1.00;;;;;;;17.74;31.65;94796.31;4988786;28;20050;-65
2021/04/11 11:57:40;;;;;;;1.13;1.10;;;;;;;17.66;31.80;94791.88;4988374;28;20575;-66
2021/04/11 12:00:24;;;;;;;1.30;1.20;;;;;;;17.53;31.29;94790.28;4986812;28;20471;-67
2021/04/11 12:03:24;;;;;;;1.08;1.08;;;;;;;17.65;33.74;94785.75;4990407;28;20049;-65
2021/04/11 12:06:09;;;;;;;1.08;1.00;;;;;;;17.78;31.91;94783.88;4986958;28;20510;-67
2021/04/11 12:09:03;;;;;;;1.20;1.10;;;;;;;18.38;31.57;94761.31;4989818;28;20190;-66
2021/04/11 12:11:31;;;;;;;2.15;1.00;;;;;;;18.73;29.37;94780.19;4983982;28;20050;-65
2021/04/11 12:14:29;;;;;;;1.50;1.13;;;;;;;18.81;29.52;94778.50;4988503;28;20145;-65
2021/04/11 12:17:21;;;;;;;1.95;1.25;;;;;;;17.96;30.39;94784.47;4984863;28;20047;-65
2021/04/11 12:20:05;;;;;;;2.45;1.30;;;;;;;18.16;31.13;94790.75;4989808;28;20493;-65
2021/04/11 12:22:42;;;;;;;4.85;1.50;;;;;;;18.00;31.45;94793.34;4986107;28;20523;-68
2021/04/11 12:25:13;;;;;;;1.42;1.13;;;;;;;17.77;31.09;94798.31;4984728;28;20043;-65
2021/04/11 12:27:41;;;;;;;1.10;1.10;;;;;;;17.61;31.52;94794.72;4990842;28;20050;-65
2021/04/11 12:30:11;;;;;;;1.20;1.10;;;;;;;17.89;31.83;94788.78;4989323;28;20042;-65